Time;durP1;ratioP1;P1;durP2;ratioP2;P2;SDS_P1;SDS_P2;PMS_P1;PMS_P2;Temp;Humidity;BMP_temperature;BMP_pressure;BME280_temperature;BME280_humidity;BME280_pressure;Samples;Min_cycle;Max_cycle;Signal;HPM_P1;HPM_P2
2022/07/24 00:00:58;;;;;;;13.45;9.35;;;18.30;99.90;;;;;;5071265;28;20196;-85
2022/07/24 00:03:26;;;;;;;14.57;8.90;;;18.30;99.90;;;;;;5085071;28;20235;-84
2022/07/24 00:05:56;;;;;;;12.60;8.93;;;18.30;99.90;;;;;;5084832;28;20209;-84
2022/07/24 00:08:23;;;;;;;10.90;8.83;;;18.30;99.90;;;;;;5085387;28;20653;-84
2022/07/24 00:10:50;;;;;;;15.63;10.00;;;18.20;99.90;;;;;;5083643;28;20196;-85
2022/07/24 00:13:17;;;;;;;13.47;9.73;;;18.20;99.90;;;;;;5085417;28;20235;-85
2022/07/24 00:15:46;;;;;;;12.90;9.37;;;18.10;99.90;;;;;;5080377;28;20246;-85
2022/07/24 00:18:13;;;;;;;13.13;9.85;;;18.20;99.90;;;;;;5088131;28;20335;-85
2022/07/24 00:20:40;;;;;;;11.50;9.23;;;18.10;99.90;;;;;;5081884;28;20237;-85
2022/07/24 00:23:07;;;;;;;13.73;10.07;;;18.10;99.90;;;;;;5080675;28;20200;-84
2022/07/24 00:25:34;;;;;;;12.57;9.43;;;18.10;99.90;;;;;;5078059;28;20207;-85
2022/07/24 00:28:01;;;;;;;13.18;9.18;;;17.80;99.90;;;;;;5083270;28;20931;-84
2022/07/24 00:30:35;;;;;;;11.77;9.25;;;18.10;99.90;;;;;;5079649;28;20204;-85
2022/07/24 00:33:02;;;;;;;14.67;9.50;;;18.10;99.90;;;;;;5079816;28;20238;-86
2022/07/24 00:35:29;;;;;;;11.23;9.50;;;18.10;99.90;;;;;;5086447;28;20630;-85
2022/07/24 00:37:56;;;;;;;12.90;9.50;;;18.00;99.90;;;;;;5079234;28;20215;-84
2022/07/24 00:40:24;;;;;;;13.87;10.17;;;18.00;99.90;;;;;;5086523;28;20203;-86
2022/07/24 00:42:54;;;;;;;15.23;9.90;;;18.00;99.90;;;;;;5084044;28;20202;-85
2022/07/24 00:45:22;;;;;;;15.35;10.85;;;18.10;99.90;;;;;;5083139;28;20292;-84
2022/07/24 00:47:54;;;;;;;11.97;9.67;;;18.00;99.90;;;;;;5082419;28;20212;-85
2022/07/24 00:50:23;;;;;;;15.20;10.77;;;17.80;99.90;;;;;;5082692;28;20268;-85
2022/07/24 00:52:51;;;;;;;12.30;9.90;;;17.90;99.90;;;;;;5087812;28;20203;-85
2022/07/24 00:55:19;;;;;;;14.03;10.10;;;17.70;99.90;;;;;;5085790;28;20238;-85
2022/07/24 00:57:48;;;;;;;13.90;9.65;;;18.00;99.90;;;;;;5084192;28;20207;-85
2022/07/24 01:00:21;;;;;;;13.80;11.17;;;17.90;99.90;;;;;;5077013;28;20302;-86
2022/07/24 01:02:51;;;;;;;12.57;10.25;;;17.90;99.90;;;;;;5078333;28;20660;-85
2022/07/24 01:05:19;;;;;;;13.67;10.33;;;17.90;99.90;;;;;;5076130;28;20238;-85
2022/07/24 01:07:46;;;;;;;14.20;10.67;;;17.80;99.90;;;;;;5075517;28;20254;-85
2022/07/24 01:10:14;;;;;;;14.80;11.43;;;17.80;99.90;;;;;;5087075;28;20224;-84
2022/07/24 01:12:41;;;;;;;15.20;12.40;;;17.80;99.90;;;;;;5086557;28;20218;-85
2022/07/24 01:15:10;;;;;;;18.20;11.63;;;17.80;99.90;;;;;;5085893;28;20232;-87
2022/07/24 01:17:41;;;;;;;15.53;11.10;;;17.80;99.90;;;;;;5103362;28;20197;-86
2022/07/24 01:20:12;;;;;;;16.50;11.53;;;17.80;99.90;;;;;;5108125;28;20200;-86
2022/07/24 01:22:41;;;;;;;15.70;11.27;;;17.80;99.90;;;;;;5111398;28;20923;-86
2022/07/24 01:25:10;;;;;;;14.70;10.67;;;17.80;99.90;;;;;;5108310;28;20200;-84
2022/07/24 01:27:38;;;;;;;13.40;10.70;;;17.70;99.90;;;;;;5098147;28;20286;-84
2022/07/24 01:30:05;;;;;;;14.63;11.45;;;17.80;99.90;;;;;;5095638;28;20216;-85
2022/07/24 01:32:32;;;;;;;16.23;11.70;;;17.80;99.90;;;;;;5089304;28;20209;-84
2022/07/24 01:35:00;;;;;;;15.03;11.40;;;17.80;99.90;;;;;;5096761;28;20719;-85
2022/07/24 01:37:27;;;;;;;15.63;11.13;;;17.70;99.90;;;;;;5096284;28;20511;-83
2022/07/24 01:39:59;;;;;;;16.97;12.37;;;17.80;99.90;;;;;;5090250;28;20204;-85
2022/07/24 01:42:28;;;;;;;16.97;12.50;;;17.70;99.90;;;;;;5085679;28;20196;-83
2022/07/24 01:44:55;;;;;;;14.60;11.93;;;17.70;99.90;;;;;;5091304;28;20196;-83
2022/07/24 01:47:22;;;;;;;17.93;12.40;;;17.70;99.90;;;;;;5093642;28;20672;-85
2022/07/24 01:49:49;;;;;;;17.37;11.77;;;17.70;99.90;;;;;;5092536;28;20256;-84
2022/07/24 01:52:16;;;;;;;15.80;12.53;;;17.60;99.90;;;;;;5092567;28;20664;-84
2022/07/24 01:54:43;;;;;;;18.10;13.17;;;17.70;99.90;;;;;;5087565;28;20224;-85
2022/07/24 01:57:10;;;;;;;17.70;14.00;;;17.60;99.90;;;;;;5086482;28;20192;-85
2022/07/24 01:59:37;;;;;;;16.53;12.70;;;17.70;99.90;;;;;;5086050;28;20214;-85
2022/07/24 02:02:04;;;;;;;20.07;13.43;;;17.60;99.90;;;;;;5078924;28;20215;-85
2022/07/24 02:04:31;;;;;;;16.63;13.10;;;17.70;99.90;;;;;;5089655;28;20240;-84
2022/07/24 02:06:58;;;;;;;18.90;14.40;;;17.70;99.90;;;;;;5088736;28;20199;-84
2022/07/24 02:09:25;;;;;;;19.00;13.57;;;17.60;99.90;;;;;;5087135;28;20207;-86
2022/07/24 02:11:53;;;;;;;17.07;13.17;;;17.60;99.90;;;;;;5086322;28;20203;-85
2022/07/24 02:14:20;;;;;;;20.47;13.27;;;17.70;99.90;;;;;;5081929;28;20224;-83
2022/07/24 02:16:47;;;;;;;18.63;12.80;;;17.60;99.90;;;;;;5078639;28;20205;-85
2022/07/24 02:19:18;;;;;;;17.07;12.10;;;17.60;99.90;;;;;;5086138;28;20283;-84
2022/07/24 02:21:45;;;;;;;17.30;12.83;;;17.60;99.90;;;;;;5083487;28;20195;-85
2022/07/24 02:24:12;;;;;;;18.50;14.20;;;17.60;99.90;;;;;;5087064;28;20325;-84
2022/07/24 02:26:38;;;;;;;17.80;13.80;;;17.60;99.90;;;;;;5092043;28;20245;-86
2022/07/24 02:29:05;;;;;;;19.20;14.27;;;17.30;99.90;;;;;;5086272;28;20214;-83
2022/07/24 02:31:33;;;;;;;21.53;14.10;;;17.50;99.90;;;;;;5085172;28;20624;-85
2022/07/24 02:34:00;;;;;;;18.23;13.63;;;17.50;99.90;;;;;;5098881;28;20331;-85
2022/07/24 02:36:27;;;;;;;17.63;12.30;;;17.40;99.90;;;;;;5090052;28;20204;-86
2022/07/24 02:38:54;;;;;;;18.97;13.27;;;17.40;99.90;;;;;;5083645;28;20205;-86
2022/07/24 02:41:23;;;;;;;18.60;13.03;;;17.40;99.90;;;;;;5092619;28;20200;-84
2022/07/24 02:43:52;;;;;;;18.30;12.63;;;17.30;99.90;;;;;;5083051;28;20197;-85
2022/07/24 02:46:19;;;;;;;19.33;14.00;;;17.30;99.90;;;;;;5088805;28;20200;-84
2022/07/24 02:48:46;;;;;;;18.07;14.07;;;17.30;99.90;;;;;;5089174;28;20216;-83
2022/07/24 02:51:13;;;;;;;19.20;13.20;;;17.30;99.90;;;;;;5084057;28;20294;-85
2022/07/24 02:53:40;;;;;;;16.20;11.87;;;17.30;99.90;;;;;;5084585;28;20224;-85
2022/07/24 02:56:08;;;;;;;17.90;13.97;;;17.30;99.90;;;;;;5084667;28;20201;-85
2022/07/24 02:58:35;;;;;;;17.70;13.43;;;17.30;99.90;;;;;;5090752;28;20231;-83
2022/07/24 03:01:05;;;;;;;20.10;13.67;;;17.30;99.90;;;;;;5089627;28;20213;-85
2022/07/24 03:03:32;;;;;;;21.97;12.73;;;17.30;99.90;;;;;;5086360;28;20240;-85
2022/07/24 03:06:00;;;;;;;18.77;14.53;;;17.20;99.90;;;;;;5086939;28;20211;-84
2022/07/24 03:08:30;;;;;;;21.23;13.83;;;17.30;99.90;;;;;;5094064;28;20204;-86
2022/07/24 03:10:57;;;;;;;20.27;13.83;;;17.30;99.90;;;;;;5091792;28;20192;-84
2022/07/24 03:13:24;;;;;;;19.47;14.00;;;17.20;99.90;;;;;;5081577;28;20288;-84
2022/07/24 03:15:51;;;;;;;18.57;14.03;;;17.20;99.90;;;;;;5084576;28;20234;-85
2022/07/24 03:18:18;;;;;;;17.40;13.10;;;17.30;99.90;;;;;;5094871;28;20212;-84
2022/07/24 03:20:49;;;;;;;18.93;14.43;;;17.30;99.90;;;;;;5084486;28;20192;-84
2022/07/24 03:23:17;;;;;;;21.67;14.03;;;17.20;99.90;;;;;;5083284;28;20261;-85
2022/07/24 03:25:44;;;;;;;16.87;13.53;;;17.20;99.90;;;;;;5085094;28;20200;-87
2022/07/24 03:28:11;;;;;;;20.93;14.73;;;17.20;99.90;;;;;;5082338;28;20208;-83
2022/07/24 03:30:38;;;;;;;22.00;14.90;;;17.20;99.90;;;;;;5078500;28;20264;-83
2022/07/24 03:33:05;;;;;;;21.40;15.17;;;17.20;99.90;;;;;;5087835;28;20737;-83
2022/07/24 03:35:35;;;;;;;19.77;13.73;;;17.20;99.90;;;;;;5086309;28;20252;-84
2022/07/24 03:38:02;;;;;;;18.40;14.00;;;17.10;99.90;;;;;;5085165;28;20219;-86
2022/07/24 03:40:32;;;;;;;19.93;14.03;;;17.20;99.90;;;;;;5082811;28;20204;-87
2022/07/24 03:42:59;;;;;;;16.90;13.27;;;17.20;99.90;;;;;;5079272;28;20238;-85
2022/07/24 03:45:26;;;;;;;20.40;14.60;;;17.20;99.90;;;;;;5103937;28;21535;-84
2022/07/24 03:47:53;;;;;;;19.73;14.43;;;17.10;99.90;;;;;;5108125;28;20220;-85
2022/07/24 03:50:24;;;;;;;21.03;14.60;;;17.10;99.90;;;;;;5111151;28;20223;-84
2022/07/24 03:53:04;;;;;;;22.93;14.63;;;17.20;99.90;;;;;;5094525;28;20209;-86
2022/07/24 03:55:48;;;;;;;22.37;14.30;;;17.10;99.90;;;;;;5094430;28;20200;-84
2022/07/24 03:58:25;;;;;;;20.27;14.17;;;17.00;99.90;;;;;;5090706;28;20199;-85
2022/07/24 04:00:52;;;;;;;17.83;13.57;;;17.10;99.90;;;;;;5097190;28;20207;-86
2022/07/24 04:03:19;;;;;;;17.73;12.67;;;17.10;99.90;;;;;;5078204;28;20255;-84
2022/07/24 04:05:48;;;;;;;21.57;14.10;;;17.20;99.90;;;;;;5086819;28;20208;-83
2022/07/24 04:08:17;;;;;;;20.40;12.80;;;17.20;99.90;;;;;;5086705;28;20207;-84
2022/07/24 04:10:48;;;;;;;21.63;13.50;;;17.20;99.90;;;;;;5083120;28;20807;-85
2022/07/24 04:13:14;;;;;;;17.60;14.10;;;17.20;99.90;;;;;;5082877;28;20219;-85
2022/07/24 04:15:46;;;;;;;18.17;13.30;;;17.20;99.90;;;;;;5074915;28;20260;-84
2022/07/24 04:18:13;;;;;;;17.43;13.37;;;17.20;99.90;;;;;;5085523;28;20298;-84
2022/07/24 04:20:39;;;;;;;18.47;14.40;;;17.10;99.90;;;;;;5091594;28;20287;-83
2022/07/24 04:23:06;;;;;;;20.03;13.53;;;17.20;99.90;;;;;;5080240;28;20207;-85
2022/07/24 04:25:34;;;;;;;19.13;13.97;;;17.20;99.90;;;;;;5081390;28;20198;-84
2022/07/24 04:28:02;;;;;;;21.07;14.47;;;17.20;99.90;;;;;;5080106;28;20670;-85
2022/07/24 04:30:30;;;;;;;16.83;14.03;;;17.20;99.90;;;;;;5085201;28;20208;-85
2022/07/24 04:32:58;;;;;;;17.43;13.03;;;17.20;99.90;;;;;;5085522;28;20223;-84
2022/07/24 04:35:25;;;;;;;17.40;13.30;;;17.20;99.90;;;;;;5085164;28;20235;-84
2022/07/24 04:37:52;;;;;;;16.77;13.07;;;17.30;99.90;;;;;;5086121;28;20211;-85
2022/07/24 04:40:20;;;;;;;20.27;14.97;;;17.30;99.90;;;;;;5084203;28;20211;-83
2022/07/24 04:42:47;;;;;;;20.07;13.60;;;17.30;99.90;;;;;;5085790;28;20241;-84
2022/07/24 04:45:14;;;;;;;17.73;13.73;;;17.30;99.90;;;;;;5082194;28;20203;-84
2022/07/24 04:47:41;;;;;;;18.73;13.63;;;17.40;99.90;;;;;;5101076;28;20412;-82
2022/07/24 04:50:08;;;;;;;20.97;14.53;;;17.40;99.90;;;;;;5107942;28;20180;-84
2022/07/24 04:52:35;;;;;;;20.00;13.63;;;17.40;99.90;;;;;;5087513;28;20667;-84
2022/07/24 04:55:02;;;;;;;19.75;14.48;;;17.40;99.90;;;;;;5081047;28;20239;-85
2022/07/24 04:57:29;;;;;;;18.48;13.65;;;17.40;99.90;;;;;;5084277;28;20199;-84
2022/07/24 04:59:56;;;;;;;22.67;14.33;;;17.50;99.90;;;;;;5076771;28;20699;-83
2022/07/24 05:02:26;;;;;;;19.17;13.35;;;17.50;99.90;;;;;;5088851;28;20302;-84
2022/07/24 05:04:53;;;;;;;20.80;13.85;;;17.60;99.90;;;;;;5087720;28;20294;-84
2022/07/24 05:07:21;;;;;;;19.42;13.68;;;17.60;99.90;;;;;;5090001;28;20207;-83
2022/07/24 05:09:52;;;;;;;22.98;14.23;;;17.60;99.90;;;;;;5072656;28;20689;-85
2022/07/24 05:12:19;;;;;;;18.15;13.50;;;17.70;99.90;;;;;;5082737;28;20200;-84
2022/07/24 05:14:46;;;;;;;18.33;13.43;;;17.70;99.90;;;;;;5082189;28;20228;-85
2022/07/24 05:17:16;;;;;;;19.85;14.10;;;17.70;99.90;;;;;;5086623;28;20266;-83
2022/07/24 05:19:46;;;;;;;17.83;13.13;;;17.80;99.90;;;;;;5086561;28;20895;-84
2022/07/24 05:22:13;;;;;;;18.75;13.63;;;17.80;99.90;;;;;;5085061;28;20208;-82
2022/07/24 05:24:40;;;;;;;20.23;13.73;;;18.00;99.90;;;;;;5090267;28;20204;-84
2022/07/24 05:27:07;;;;;;;19.80;13.80;;;18.00;99.90;;;;;;5086784;28;20196;-84
2022/07/24 05:29:38;;;;;;;18.17;13.90;;;18.10;99.90;;;;;;5092699;28;20644;-83
2022/07/24 05:32:07;;;;;;;18.48;13.20;;;18.20;99.90;;;;;;5082256;28;20292;-83
2022/07/24 05:34:35;;;;;;;20.13;13.63;;;18.30;99.90;;;;;;5087745;28;20207;-82
2022/07/24 05:37:08;;;;;;;19.20;14.57;;;18.30;99.90;;;;;;5086005;28;20207;-83
2022/07/24 05:39:35;;;;;;;19.25;13.73;;;18.40;99.90;;;;;;5086667;28;20207;-84
2022/07/24 05:42:03;;;;;;;20.63;15.02;;;18.40;99.90;;;;;;5087132;28;20207;-84
2022/07/24 05:44:30;;;;;;;20.15;14.27;;;18.50;99.90;;;;;;5078073;28;20210;-84
2022/07/24 05:46:56;;;;;;;19.83;13.70;;;18.60;99.90;;;;;;5084038;28;20208;-82
2022/07/24 05:49:24;;;;;;;18.67;13.32;;;19.10;99.90;;;;;;5080569;28;20201;-83
2022/07/24 05:51:53;;;;;;;17.67;13.32;;;;;;;;;;5083612;28;20283;-83
2022/07/24 05:54:19;;;;;;;16.27;11.90;;;21.10;99.90;;;;;;5081200;28;20594;-84
2022/07/24 05:56:46;;;;;;;17.02;12.50;;;22.20;99.90;;;;;;5085340;28;20571;-85
2022/07/24 05:59:19;;;;;;;15.38;12.20;;;23.20;99.90;;;;;;5087826;28;20212;-86
2022/07/24 06:01:46;;;;;;;21.10;13.27;;;24.50;99.90;;;;;;5089820;28;20632;-86
2022/07/24 06:04:15;;;;;;;16.75;12.65;;;25.10;99.90;;;;;;5084300;28;20247;-85
2022/07/24 06:06:42;;;;;;;14.57;11.77;;;25.90;99.90;;;;;;5087590;28;20289;-86
2022/07/24 06:09:10;;;;;;;16.10;11.73;;;26.60;99.90;;;;;;5092433;28;20204;-85
2022/07/24 06:11:42;;;;;;;14.43;12.50;;;27.30;99.90;;;;;;5086317;28;20206;-85
2022/07/24 06:14:10;;;;;;;15.02;11.82;;;27.70;99.90;;;;;;5093308;28;20214;-88
2022/07/24 06:16:43;;;;;;;13.80;11.98;;;28.40;99.90;;;;;;5084983;28;20307;-85
2022/07/24 06:19:15;;;;;;;15.25;12.30;;;29.00;99.90;;;;;;5091006;28;20265;-87
2022/07/24 06:21:42;;;;;;;14.35;12.85;;;29.50;99.90;;;;;;5078965;28;20200;-84
2022/07/24 06:24:10;;;;;;;14.98;12.25;;;30.00;99.90;;;;;;5082158;28;20204;-84
2022/07/24 06:26:40;;;;;;;16.55;12.30;;;30.50;99.90;;;;;;5083135;28;21105;-88
2022/07/24 06:29:28;;;;;;;14.45;10.10;;;30.90;99.90;;;;;;5089401;28;20215;-84
2022/07/24 06:31:55;;;;;;;14.45;9.43;;;31.10;99.90;;;;;;5085536;28;20205;-83
2022/07/24 06:34:25;;;;;;;10.10;7.90;;;31.10;99.90;;;;;;5090756;28;20227;-83
2022/07/24 06:36:53;;;;;;;8.35;6.88;;;31.00;99.50;;;;;;5085375;28;20228;-87
2022/07/24 06:39:20;;;;;;;6.45;5.22;;;30.90;98.50;;;;;;5086808;28;20279;-84
2022/07/24 06:41:48;;;;;;;7.20;5.65;;;30.90;97.90;;;;;;5084550;28;20207;-85
2022/07/24 06:44:15;;;;;;;5.80;4.72;;;30.80;96.50;;;;;;5089529;28;20234;-83
2022/07/24 06:46:42;;;;;;;5.85;5.25;;;30.80;96.30;;;;;;5092298;28;20206;-84
2022/07/24 06:49:11;;;;;;;5.22;4.50;;;31.00;96.30;;;;;;5087811;28;20644;-84
2022/07/24 06:51:38;;;;;;;6.90;4.55;;;31.30;95.20;;;;;;5081304;28;20199;-84
2022/07/24 06:54:05;;;;;;;6.55;4.63;;;31.30;94.00;;;;;;5084728;28;20228;-86
2022/07/24 06:56:32;;;;;;;4.50;4.10;;;31.60;93.60;;;;;;5082306;28;20309;-84
2022/07/24 06:58:59;;;;;;;4.50;3.88;;;31.60;93.20;;;;;;5088172;28;20208;-84
2022/07/24 07:01:27;;;;;;;3.95;3.55;;;31.90;92.50;;;;;;5080363;28;20211;-83
2022/07/24 07:03:54;;;;;;;4.35;3.90;;;32.30;92.00;;;;;;5085159;28;20231;-84
2022/07/24 07:06:21;;;;;;;3.97;3.40;;;32.70;90.90;;;;;;5084003;28;20207;-85
2022/07/24 07:08:49;;;;;;;4.18;3.53;;;32.90;89.00;;;;;;5085903;28;20206;-84
2022/07/24 07:11:16;;;;;;;3.28;2.90;;;33.10;86.30;;;;;;5075667;28;20204;-86
2022/07/24 07:13:43;;;;;;;5.18;3.00;;;33.40;84.50;;;;;;5086075;28;20896;-85
2022/07/24 07:16:13;;;;;;;2.75;2.22;;;33.30;82.30;;;;;;5078974;28;20243;-84
2022/07/24 07:18:43;;;;;;;2.50;2.30;;;33.20;79.70;;;;;;5077217;28;20220;-83
2022/07/24 07:21:10;;;;;;;2.78;2.58;;;33.20;78.30;;;;;;5083013;28;20196;-85
2022/07/24 07:23:37;;;;;;;3.00;2.47;;;33.30;77.20;;;;;;5086060;28;20283;-84
2022/07/24 07:26:04;;;;;;;3.05;2.20;;;33.10;76.20;;;;;;5087865;28;20207;-83
2022/07/24 07:28:32;;;;;;;3.35;2.30;;;33.10;76.00;;;;;;5097756;28;20215;-84
2022/07/24 07:30:59;;;;;;;2.67;2.45;;;32.70;76.00;;;;;;5098027;28;20200;-85
2022/07/24 07:33:26;;;;;;;2.80;2.13;;;32.70;75.80;;;;;;5095100;28;20219;-84
2022/07/24 07:35:53;;;;;;;3.58;2.70;;;32.70;77.60;;;;;;5085466;28;20227;-84
2022/07/24 07:38:20;;;;;;;2.75;2.45;;;32.60;76.60;;;;;;5085250;28;20319;-85
2022/07/24 07:40:55;;;;;;;3.08;2.50;;;32.70;77.00;;;;;;5089391;28;20861;-84
2022/07/24 07:43:24;;;;;;;3.15;2.85;;;32.90;76.90;;;;;;5085971;28;20203;-83
2022/07/24 07:45:53;;;;;;;4.05;2.70;;;32.80;76.80;;;;;;5080943;28;20215;-84
2022/07/24 07:48:20;;;;;;;2.90;2.60;;;32.40;76.20;;;;;;5079268;28;20215;-86
2022/07/24 07:50:47;;;;;;;3.10;2.45;;;32.50;76.80;;;;;;5085328;28;20207;-84
2022/07/24 07:53:14;;;;;;;2.97;2.70;;;32.40;77.20;;;;;;5088708;28;20221;-84
2022/07/24 07:55:42;;;;;;;3.38;2.75;;;32.30;77.50;;;;;;5085815;28;20211;-88
2022/07/24 07:58:12;;;;;;;2.97;2.63;;;32.30;77.20;;;;;;5084377;28;20207;-84
2022/07/24 08:00:39;;;;;;;3.03;2.72;;;32.10;77.30;;;;;;5074640;28;20204;-84
2022/07/24 08:03:06;;;;;;;4.25;2.97;;;32.50;77.80;;;;;;5083691;28;21027;-85
2022/07/24 08:05:33;;;;;;;3.28;2.97;;;32.80;77.30;;;;;;5082309;28;20213;-85
2022/07/24 08:08:00;;;;;;;3.67;2.88;;;32.90;77.10;;;;;;5083720;28;20254;-84
2022/07/24 08:10:30;;;;;;;3.33;3.00;;;32.80;76.70;;;;;;5078405;28;20225;-84
2022/07/24 08:12:57;;;;;;;4.10;3.22;;;32.90;77.40;;;;;;5080696;28;20254;-84
2022/07/24 08:15:26;;;;;;;3.83;3.00;;;32.40;76.80;;;;;;5081724;28;20674;-85
2022/07/24 08:17:57;;;;;;;3.08;2.80;;;32.40;77.20;;;;;;5073536;28;20216;-86
2022/07/24 08:20:26;;;;;;;3.67;2.70;;;32.40;77.00;;;;;;5079385;28;20191;-84
2022/07/24 08:22:54;;;;;;;3.80;3.17;;;32.30;76.40;;;;;;5086846;28;20275;-86
2022/07/24 08:25:22;;;;;;;5.25;3.55;;;32.00;77.40;;;;;;5099307;28;20207;-86
2022/07/24 08:27:49;;;;;;;3.08;2.78;;;32.00;77.80;;;;;;5102183;28;20231;-84
2022/07/24 08:30:19;;;;;;;3.92;3.20;;;32.00;78.00;;;;;;5093162;28;20203;-83
2022/07/24 08:32:46;;;;;;;3.67;3.10;;;32.10;77.80;;;;;;5092478;28;20222;-84
2022/07/24 08:35:16;;;;;;;3.90;2.95;;;32.30;78.40;;;;;;5095277;28;20207;-85
2022/07/24 08:37:43;;;;;;;3.45;3.05;;;32.50;77.80;;;;;;5093775;28;20253;-84
2022/07/24 08:40:11;;;;;;;3.25;2.70;;;32.30;77.70;;;;;;5096259;28;20210;-84
2022/07/24 08:42:38;;;;;;;3.03;2.70;;;32.10;77.70;;;;;;5094807;28;20291;-83
2022/07/24 08:45:06;;;;;;;2.70;2.45;;;32.40;77.80;;;;;;5089299;28;20210;-85
2022/07/24 08:47:33;;;;;;;2.58;2.20;;;32.70;75.90;;;;;;5076864;28;20232;-84
2022/07/24 08:50:02;;;;;;;3.10;2.67;;;32.40;74.70;;;;;;5078341;28;20197;-84
2022/07/24 08:52:35;;;;;;;2.22;2.03;;;32.40;74.90;;;;;;5081044;28;20207;-85
2022/07/24 08:55:10;;;;;;;2.72;2.10;;;32.40;76.10;;;;;;5085996;28;20230;-85
2022/07/24 08:57:37;;;;;;;3.08;2.78;;;32.30;75.50;;;;;;5087939;28;20226;-84
2022/07/24 09:00:05;;;;;;;2.60;2.40;;;32.50;76.10;;;;;;5083683;28;20203;-84
2022/07/24 09:02:33;;;;;;;2.78;2.35;;;32.90;76.10;;;;;;5084975;28;20214;-84
2022/07/24 09:05:01;;;;;;;2.55;2.35;;;33.00;74.20;;;;;;5081461;28;20218;-84
2022/07/24 09:07:31;;;;;;;4.22;2.28;;;32.90;72.90;;;;;;5087311;28;20218;-84
2022/07/24 09:10:06;;;;;;;2.60;2.40;;;32.80;73.40;;;;;;5083459;28;21097;-85
2022/07/24 09:12:39;;;;;;;3.05;2.55;;;32.60;74.00;;;;;;5086561;28;20720;-83
2022/07/24 09:15:14;;;;;;;2.72;2.13;;;32.40;74.50;;;;;;5082270;28;20207;-87
2022/07/24 09:17:53;;;;;;;4.50;2.38;;;32.50;74.30;;;;;;5085372;28;20710;-85
2022/07/24 09:20:22;;;;;;;3.25;2.63;;;32.00;73.30;;;;;;5105817;28;20212;-83
2022/07/24 09:22:50;;;;;;;2.90;2.60;;;31.90;75.30;;;;;;5081360;28;20196;-84
2022/07/24 09:25:22;;;;;;;3.22;2.50;;;32.00;75.40;;;;;;5085234;28;20286;-85
2022/07/24 09:28:06;;;;;;;3.30;2.47;;;32.30;75.50;;;;;;5083338;28;20295;-88
2022/07/24 09:30:51;;;;;;;3.60;2.50;;;32.20;74.50;;;;;;5094545;28;20283;-87
2022/07/24 09:33:21;;;;;;;2.92;2.40;;;32.10;74.30;;;;;;5086438;28;20253;-87
2022/07/24 09:35:52;;;;;;;3.90;2.70;;;31.90;75.30;;;;;;5089188;28;20700;-84
2022/07/24 09:38:25;;;;;;;4.10;2.90;;;31.70;74.80;;;;;;5087984;28;20619;-85
2022/07/24 09:40:56;;;;;;;2.92;2.50;;;31.80;76.40;;;;;;5087052;28;20206;-85
2022/07/24 09:43:26;;;;;;;3.47;2.75;;;32.00;76.50;;;;;;5090563;28;20212;-85
2022/07/24 09:46:07;;;;;;;3.22;2.92;;;31.70;75.60;;;;;;5089429;28;20228;-83
2022/07/24 09:48:40;;;;;;;4.20;2.80;;;31.80;77.80;;;;;;5085696;28;20223;-84
2022/07/24 09:51:15;;;;;;;2.85;2.65;;;32.00;76.80;;;;;;5086696;28;20284;-82
2022/07/24 09:53:46;;;;;;;3.75;3.03;;;32.10;76.20;;;;;;5084844;28;20625;-83
2022/07/24 09:56:17;;;;;;;4.30;2.58;;;31.90;76.30;;;;;;5090291;28;20231;-85
2022/07/24 09:58:44;;;;;;;2.95;2.65;;;32.00;76.10;;;;;;5088853;28;20565;-84
2022/07/24 10:01:19;;;;;;;3.42;2.63;;;31.80;76.90;;;;;;5081448;28;20196;-85
2022/07/24 10:03:48;;;;;;;4.82;2.78;;;31.80;76.90;;;;;;5083487;28;20226;-85
2022/07/24 10:06:25;;;;;;;3.30;2.53;;;32.00;77.10;;;;;;5084676;28;20207;-82
2022/07/24 10:08:53;;;;;;;3.45;3.05;;;32.10;74.90;;;;;;5090885;28;20203;-84
2022/07/24 10:11:21;;;;;;;4.43;2.80;;;32.00;75.00;;;;;;5090534;28;20310;-84
2022/07/24 10:13:53;;;;;;;3.78;2.53;;;31.80;74.60;;;;;;5084210;28;20273;-85
2022/07/24 10:16:28;;;;;;;3.40;3.00;;;31.70;75.40;;;;;;5082151;28;20343;-86
2022/07/24 10:18:58;;;;;;;3.78;2.90;;;31.50;75.60;;;;;;5087319;28;20332;-86
2022/07/24 10:21:27;;;;;;;3.47;3.17;;;31.40;77.20;;;;;;5080495;28;20667;-83
2022/07/24 10:24:18;;;;;;;4.10;2.63;;;31.30;75.90;;;;;;5087513;28;20204;-85
2022/07/24 10:26:49;;;;;;;3.13;2.70;;;31.60;75.40;;;;;;5091217;28;20211;-86
2022/07/24 10:29:24;;;;;;;3.15;2.85;;;31.80;75.50;;;;;;5085867;28;20689;-84
2022/07/24 10:31:56;;;;;;;4.82;3.30;;;31.80;75.60;;;;;;5088075;28;20249;-84
2022/07/24 10:34:41;;;;;;;3.53;3.22;;;31.50;75.80;;;;;;5087878;28;20638;-83
2022/07/24 10:37:36;;;;;;;4.22;2.88;;;31.60;75.60;;;;;;5087823;28;20235;-84
2022/07/24 10:40:14;;;;;;;3.25;2.95;;;31.50;73.90;;;;;;5085923;28;20234;-85
2022/07/24 10:43:09;;;;;;;4.35;3.22;;;31.50;75.00;;;;;;5088826;28;20206;-88
2022/07/24 10:45:40;;;;;;;3.30;3.00;;;31.40;75.30;;;;;;5090132;28;20196;-86
2022/07/24 10:48:26;;;;;;;4.03;3.15;;;31.00;75.40;;;;;;5087334;28;20230;-85
2022/07/24 10:51:05;;;;;;;5.05;3.22;;;31.10;76.90;;;;;;5085108;28;20206;-85
2022/07/24 10:53:35;;;;;;;5.07;2.92;;;31.30;76.30;;;;;;5082089;28;20228;-83
2022/07/24 10:56:23;;;;;;;3.70;3.05;;;31.30;75.70;;;;;;5083781;28;20551;-86
2022/07/24 10:59:12;;;;;;;4.70;3.47;;;31.20;75.40;;;;;;5088855;28;20204;-84
2022/07/24 11:01:48;;;;;;;3.38;3.08;;;31.20;75.60;;;;;;5079911;28;20212;-84
2022/07/24 11:04:19;;;;;;;4.28;3.50;;;31.00;76.80;;;;;;5084538;28;20596;-84
2022/07/24 11:06:48;;;;;;;3.70;3.22;;;31.00;76.80;;;;;;5092907;28;20648;-84
2022/07/24 11:09:18;;;;;;;4.00;3.35;;;31.00;77.10;;;;;;5098418;28;20202;-85
2022/07/24 11:11:55;;;;;;;3.47;3.17;;;31.00;77.40;;;;;;5082111;28;20212;-84
2022/07/24 11:14:24;;;;;;;3.45;3.13;;;31.00;77.20;;;;;;5080959;28;20203;-84
2022/07/24 11:16:52;;;;;;;5.22;3.42;;;31.00;76.40;;;;;;5094541;28;20237;-82
2022/07/24 11:19:19;;;;;;;3.63;2.95;;;30.90;76.10;;;;;;5089308;28;20198;-85
2022/07/24 11:21:47;;;;;;;5.30;3.10;;;31.00;77.40;;;;;;5087049;28;20201;-85
2022/07/24 11:24:19;;;;;;;4.85;3.30;;;31.20;77.20;;;;;;5086347;28;20227;-87
2022/07/24 11:27:03;;;;;;;4.68;3.58;;;31.20;76.60;;;;;;5092076;28;20197;-83
2022/07/24 11:29:34;;;;;;;3.28;2.90;;;31.20;77.20;;;;;;5105953;28;20195;-83
2022/07/24 11:32:10;;;;;;;3.78;3.10;;;31.20;77.00;;;;;;5088814;28;20216;-86
2022/07/24 11:34:51;;;;;;;3.50;3.03;;;31.20;77.30;;;;;;5088131;28;20288;-84
2022/07/24 11:37:19;;;;;;;5.28;3.35;;;31.20;75.90;;;;;;5079607;28;20207;-86
2022/07/24 11:39:46;;;;;;;3.75;2.92;;;31.00;76.10;;;;;;5077849;28;20208;-86
2022/07/24 11:42:16;;;;;;;3.38;3.03;;;31.10;76.60;;;;;;5080312;28;20214;-85
2022/07/24 11:44:48;;;;;;;4.93;3.20;;;31.30;77.40;;;;;;5083783;28;20291;-85
2022/07/24 11:47:26;;;;;;;4.90;2.88;;;31.50;77.40;;;;;;5108984;27;20251;-84
2022/07/24 11:49:56;;;;;;;5.45;3.60;;;31.70;78.20;;;;;;5081359;28;20223;-85
2022/07/24 11:52:33;;;;;;;3.75;3.22;;;31.30;76.90;;;;;;5076740;28;20212;-85
2022/07/24 11:55:14;;;;;;;4.93;3.58;;;31.40;77.40;;;;;;5085444;28;20215;-86
2022/07/24 11:57:50;;;;;;;3.65;3.33;;;31.60;76.80;;;;;;5077282;28;20231;-85
2022/07/24 12:00:34;;;;;;;3.72;2.90;;;31.60;76.40;;;;;;5077208;28;20213;-85
2022/07/24 12:03:03;;;;;;;4.88;3.38;;;31.50;76.30;;;;;;5071933;28;20229;-83
2022/07/24 12:05:34;;;;;;;3.78;3.30;;;31.50;77.00;;;;;;5077702;28;20215;-84
2022/07/24 12:08:04;;;;;;;3.45;3.15;;;31.50;77.50;;;;;;5082514;28;20207;-82
2022/07/24 12:10:31;;;;;;;3.90;3.13;;;31.60;77.40;;;;;;5096356;28;20204;-85
2022/07/24 12:12:58;;;;;;;4.18;3.60;;;31.70;78.50;;;;;;5090825;28;20205;-84
2022/07/24 12:15:26;;;;;;;4.40;3.47;;;31.70;79.00;;;;;;5084403;28;20579;-85
2022/07/24 12:18:00;;;;;;;4.03;3.15;;;31.70;78.60;;;;;;5082857;28;20238;-83
2022/07/24 12:20:36;;;;;;;4.68;3.72;;;31.90;78.50;;;;;;5080933;28;20249;-84
2022/07/24 12:23:06;;;;;;;5.07;3.15;;;31.90;78.70;;;;;;5080408;28;20204;-84
2022/07/24 12:25:33;;;;;;;7.20;3.40;;;31.80;78.30;;;;;;5075065;28;20250;-83
2022/07/24 12:28:10;;;;;;;3.45;3.15;;;32.10;78.40;;;;;;5080011;28;20192;-83
2022/07/24 12:30:42;;;;;;;3.45;3.10;;;32.20;77.70;;;;;;5083507;28;20223;-84
2022/07/24 12:33:24;;;;;;;3.55;3.25;;;32.30;77.80;;;;;;5084163;28;20220;-84
2022/07/24 12:36:10;;;;;;;4.55;3.28;;;32.30;77.80;;;;;;5095783;28;20291;-85
2022/07/24 12:38:39;;;;;;;4.53;3.35;;;32.10;78.00;;;;;;5085156;28;20223;-85
2022/07/24 12:41:30;;;;;;;4.80;2.97;;;32.20;78.20;;;;;;5072815;28;20544;-84
2022/07/24 12:44:11;;;;;;;3.50;3.20;;;32.30;78.00;;;;;;5068136;28;20212;-85
2022/07/24 12:46:49;;;;;;;4.47;3.17;;;32.50;77.70;;;;;;5073977;28;20288;-86
2022/07/24 12:49:17;;;;;;;5.38;3.10;;;32.70;78.70;;;;;;5080989;28;20192;-83
2022/07/24 12:51:59;;;;;;;4.13;3.03;;;32.80;78.00;;;;;;5077832;28;20207;-83